Time;durP1;ratioP1;P1;durP2;ratioP2;P2;SDS_P1;SDS_P2;PMS_P1;PMS_P2;Temp;Humidity;BMP_temperature;BMP_pressure;BME280_temperature;BME280_humidity;BME280_pressure;Samples;Min_cycle;Max_cycle;Signal;HPM_P1;HPM_P2
2022/03/14 00:00:47;;;;;;;20.85;12.68;;;5.40;30.40;;;;;;5047940;28;20199;-84
2022/03/14 00:03:14;;;;;;;22.05;13.25;;;5.40;30.30;;;;;;5049025;28;20220;-84
2022/03/14 00:05:41;;;;;;;16.98;12.55;;;5.40;30.50;;;;;;5050255;28;20227;-84
2022/03/14 00:08:08;;;;;;;16.45;12.73;;;5.40;30.70;;;;;;5050932;28;20208;-85
2022/03/14 00:10:35;;;;;;;19.35;12.85;;;5.30;30.70;;;;;;5049549;28;20314;-84
2022/03/14 00:13:03;;;;;;;24.40;13.38;;;5.30;30.70;;;;;;5048662;28;20227;-84
2022/03/14 00:15:30;;;;;;;18.42;12.93;;;5.30;30.50;;;;;;5045071;28;20209;-83
2022/03/14 00:18:00;;;;;;;16.73;12.45;;;5.30;30.70;;;;;;5045537;28;20191;-83
2022/03/14 00:20:27;;;;;;;18.45;13.38;;;5.20;30.40;;;;;;5058334;28;20184;-83
2022/03/14 00:22:53;;;;;;;18.95;12.90;;;5.20;30.60;;;;;;5055590;28;20243;-84
2022/03/14 00:25:20;;;;;;;23.05;13.65;;;5.20;30.40;;;;;;5043772;28;20217;-84
2022/03/14 00:27:47;;;;;;;17.77;12.95;;;4.80;39.80;;;;;;5045796;28;20234;-84
2022/03/14 00:30:26;;;;;;;20.40;13.32;;;5.10;33.00;;;;;;5047717;28;20208;-85
2022/03/14 00:32:53;;;;;;;21.15;12.30;;;;;;;;;;5048151;28;20360;-84
2022/03/14 00:35:21;;;;;;;21.23;13.57;;;5.00;30.40;;;;;;5055467;28;20226;-84
2022/03/14 00:37:47;;;;;;;21.48;12.52;;;4.90;31.10;;;;;;5053003;28;20231;-83
2022/03/14 00:40:14;;;;;;;19.90;13.63;;;4.90;31.10;;;;;;5055756;28;20222;-84
2022/03/14 00:42:41;;;;;;;18.55;12.95;;;4.80;31.30;;;;;;5055754;28;20257;-83
2022/03/14 00:45:09;;;;;;;25.02;13.98;;;4.80;31.30;;;;;;5056389;28;20199;-84
2022/03/14 00:47:35;;;;;;;21.90;12.82;;;4.80;31.50;;;;;;5055384;28;20249;-84
2022/03/14 00:50:02;;;;;;;20.23;12.70;;;4.70;31.50;;;;;;5050515;28;20203;-84
2022/03/14 00:52:30;;;;;;;22.00;11.95;;;4.70;31.60;;;;;;5048251;28;20230;-84
2022/03/14 00:54:56;;;;;;;22.30;13.20;;;4.70;31.80;;;;;;5047365;28;20204;-84
2022/03/14 00:57:23;;;;;;;17.30;12.30;;;4.70;31.70;;;;;;5047192;28;20243;-84
2022/03/14 00:59:49;;;;;;;19.50;13.27;;;4.60;31.90;;;;;;5047431;28;20207;-84
2022/03/14 01:02:16;;;;;;;22.10;13.13;;;4.60;31.80;;;;;;5046581;28;20277;-84
2022/03/14 01:04:43;;;;;;;17.38;12.48;;;4.60;31.90;;;;;;5046848;28;20518;-84
2022/03/14 01:07:09;;;;;;;21.13;13.80;;;4.80;43.40;;;;;;5047765;28;20234;-84
2022/03/14 01:09:37;;;;;;;21.85;13.45;;;4.60;31.90;;;;;;5049156;28;20219;-84
2022/03/14 01:12:05;;;;;;;23.85;12.93;;;4.60;31.90;;;;;;5055368;28;20223;-83
2022/03/14 01:14:31;;;;;;;28.35;14.27;;;4.50;32.10;;;;;;5055321;28;20204;-84
2022/03/14 01:16:58;;;;;;;19.15;14.32;;;4.50;32.10;;;;;;5052292;28;20199;-84
2022/03/14 01:19:24;;;;;;;20.40;12.85;;;4.50;32.30;;;;;;5046233;28;20230;-84
2022/03/14 01:21:51;;;;;;;21.48;13.32;;;4.30;44.80;;;;;;5047047;28;20258;-85
2022/03/14 01:24:18;;;;;;;24.20;14.27;;;4.50;32.40;;;;;;5049356;28;20203;-84
2022/03/14 01:26:46;;;;;;;21.40;13.77;;;4.50;32.40;;;;;;5048925;28;20219;-85
2022/03/14 01:29:14;;;;;;;24.13;13.63;;;4.50;32.40;;;;;;5049656;28;20215;-83
2022/03/14 01:31:41;;;;;;;20.13;12.55;;;4.60;41.40;;;;;;5054109;28;20235;-83
2022/03/14 01:34:08;;;;;;;17.55;13.07;;;4.40;32.70;;;;;;5043444;28;20275;-85
2022/03/14 01:36:35;;;;;;;18.75;14.05;;;4.50;32.80;;;;;;5047630;28;20231;-83
2022/03/14 01:39:01;;;;;;;18.67;13.25;;;4.40;32.90;;;;;;5049876;28;20203;-83
2022/03/14 01:41:29;;;;;;;19.20;13.38;;;4.40;33.20;;;;;;5050744;28;20212;-84
2022/03/14 01:43:57;;;;;;;19.42;13.75;;;4.50;33.30;;;;;;5049881;28;20244;-84
2022/03/14 01:46:24;;;;;;;19.73;12.70;;;4.40;33.20;;;;;;5050441;28;20228;-85
2022/03/14 01:48:51;;;;;;;17.20;12.48;;;4.40;33.30;;;;;;5060963;28;20188;-83
2022/03/14 01:51:18;;;;;;;22.88;14.07;;;4.40;33.50;;;;;;5059623;28;20199;-83
2022/03/14 01:53:45;;;;;;;25.67;14.10;;;4.40;33.80;;;;;;5047548;28;20235;-83
2022/03/14 01:56:12;;;;;;;27.27;14.60;;;4.40;45.30;;;;;;5056407;28;20237;-83
2022/03/14 01:58:39;;;;;;;24.30;13.50;;;4.30;33.80;;;;;;5055631;28;20294;-83
2022/03/14 02:01:09;;;;;;;22.88;13.93;;;4.40;34.50;;;;;;5055321;28;20262;-85
2022/03/14 02:03:36;;;;;;;22.42;14.45;;;4.30;35.00;;;;;;5049488;28;20323;-84
2022/03/14 02:06:03;;;;;;;22.77;13.82;;;4.30;34.50;;;;;;5049346;28;20220;-84
2022/03/14 02:08:29;;;;;;;20.27;14.40;;;4.30;34.60;;;;;;5049985;28;20207;-84
2022/03/14 02:10:56;;;;;;;19.83;13.70;;;4.30;47.10;;;;;;5049618;28;20287;-84
2022/03/14 02:13:23;;;;;;;23.60;14.75;;;4.20;34.60;;;;;;5049894;28;20224;-84
2022/03/14 02:15:50;;;;;;;26.70;14.38;;;4.20;34.90;;;;;;5049404;28;20599;-84
2022/03/14 02:18:18;;;;;;;23.48;14.45;;;4.20;34.90;;;;;;5049146;28;20203;-84
2022/03/14 02:20:46;;;;;;;21.83;13.32;;;4.10;35.20;;;;;;5048817;28;20212;-84
2022/03/14 02:23:13;;;;;;;20.70;12.95;;;4.20;35.40;;;;;;5049087;28;20231;-85
2022/03/14 02:25:47;;;;;;;20.15;13.55;;;4.20;35.30;;;;;;5048382;28;20215;-84
2022/03/14 02:28:14;;;;;;;21.33;14.15;;;4.10;35.60;;;;;;5048709;28;20191;-84
2022/03/14 02:30:41;;;;;;;24.23;14.35;;;4.10;35.40;;;;;;5049265;28;20199;-84
2022/03/14 02:33:08;;;;;;;18.63;13.18;;;4.10;35.60;;;;;;5048987;28;20224;-85
2022/03/14 02:35:36;;;;;;;22.48;13.68;;;4.10;35.40;;;;;;5049619;28;20208;-84
2022/03/14 02:38:07;;;;;;;20.02;13.32;;;4.00;35.60;;;;;;5049074;28;20226;-84
2022/03/14 02:40:34;;;;;;;17.83;12.15;;;4.00;35.70;;;;;;5053173;28;20195;-84
2022/03/14 02:43:02;;;;;;;20.40;13.93;;;3.80;49.00;;;;;;5053895;28;20231;-84
2022/03/14 02:45:30;;;;;;;22.20;13.38;;;3.90;36.30;;;;;;5054328;28;20204;-84
2022/03/14 02:47:57;;;;;;;21.13;13.57;;;3.90;36.20;;;;;;5053098;28;20232;-84
2022/03/14 02:50:24;;;;;;;24.67;15.13;;;3.90;36.30;;;;;;5054222;28;20208;-84
2022/03/14 02:52:50;;;;;;;22.60;14.02;;;3.90;36.50;;;;;;5050710;28;20220;-84
2022/03/14 02:55:21;;;;;;;23.05;13.73;;;3.80;36.50;;;;;;5049150;28;20208;-84
2022/03/14 02:57:47;;;;;;;19.80;13.10;;;3.80;36.70;;;;;;5048970;28;20243;-84
2022/03/14 03:00:15;;;;;;;23.25;12.52;;;3.80;36.80;;;;;;5048894;28;20199;-84
2022/03/14 03:02:42;;;;;;;24.98;15.73;;;3.80;37.10;;;;;;5047638;28;20224;-84
2022/03/14 03:05:09;;;;;;;22.95;14.00;;;3.90;36.80;;;;;;5044791;28;20215;-84
2022/03/14 03:07:36;;;;;;;18.15;13.18;;;3.90;48.00;;;;;;5052280;28;20293;-83
2022/03/14 03:10:04;;;;;;;22.35;13.20;;;4.00;36.80;;;;;;5056850;28;20208;-82
2022/03/14 03:12:32;;;;;;;23.70;14.27;;;3.90;36.50;;;;;;5057211;28;20234;-82
2022/03/14 03:14:59;;;;;;;28.88;13.60;;;3.90;36.60;;;;;;5059604;28;20195;-82
2022/03/14 03:17:26;;;;;;;22.70;12.55;;;3.90;36.80;;;;;;5057587;28;20215;-85
2022/03/14 03:19:52;;;;;;;21.23;13.45;;;3.80;36.50;;;;;;5054023;28;20214;-84
2022/03/14 03:22:19;;;;;;;21.10;12.07;;;3.90;36.30;;;;;;5048648;28;20277;-84
2022/03/14 03:24:45;;;;;;;20.50;13.85;;;3.80;48.50;;;;;;5046301;28;20214;-84
2022/03/14 03:27:12;;;;;;;20.90;13.18;;;3.90;36.20;;;;;;5046993;28;20239;-84
2022/03/14 03:29:40;;;;;;;25.63;14.23;;;3.90;36.10;;;;;;5048334;28;20606;-83
2022/03/14 03:32:07;;;;;;;19.55;13.40;;;3.90;36.20;;;;;;5047450;28;20243;-85
2022/03/14 03:34:34;;;;;;;19.45;13.00;;;3.80;36.00;;;;;;5048077;28;20203;-84
2022/03/14 03:37:00;;;;;;;21.92;14.07;;;3.80;36.60;;;;;;5046981;28;20200;-84
2022/03/14 03:39:27;;;;;;;18.48;12.73;;;3.80;36.90;;;;;;5047295;28;20207;-84
2022/03/14 03:41:53;;;;;;;23.52;14.88;;;3.90;50.20;;;;;;5047187;28;20746;-86
2022/03/14 03:44:20;;;;;;;18.10;12.60;;;3.90;36.20;;;;;;5046968;28;20238;-84
2022/03/14 03:46:48;;;;;;;24.02;13.77;;;3.90;36.50;;;;;;5048656;28;20250;-85
2022/03/14 03:49:14;;;;;;;19.95;13.55;;;3.90;36.60;;;;;;5047512;28;20207;-84
2022/03/14 03:51:41;;;;;;;24.77;13.50;;;3.90;50.30;;;;;;5049620;28;20208;-83
2022/03/14 03:54:08;;;;;;;24.25;13.25;;;3.70;37.10;;;;;;5052461;28;20199;-83
2022/03/14 03:56:35;;;;;;;23.10;13.88;;;3.60;37.80;;;;;;5049070;28;20206;-83
2022/03/14 03:59:01;;;;;;;21.67;14.55;;;3.50;37.90;;;;;;5047569;28;20205;-84
2022/03/14 04:01:29;;;;;;;18.42;12.35;;;3.50;50.30;;;;;;5041357;28;20238;-85
2022/03/14 04:03:58;;;;;;;19.05;14.00;;;3.60;37.60;;;;;;5040586;28;20228;-83
2022/03/14 04:06:29;;;;;;;18.92;12.32;;;3.60;37.60;;;;;;5042249;28;20286;-83
2022/03/14 04:08:56;;;;;;;24.80;14.75;;;3.70;37.90;;;;;;5046704;28;20219;-84
2022/03/14 04:11:23;;;;;;;23.45;13.55;;;3.60;37.20;;;;;;5047246;28;20207;-84
2022/03/14 04:13:51;;;;;;;21.70;13.65;;;3.50;37.20;;;;;;5044236;28;20227;-85
2022/03/14 04:16:18;;;;;;;21.55;13.77;;;3.60;36.90;;;;;;5045960;28;20208;-84
2022/03/14 04:18:46;;;;;;;21.17;13.75;;;3.90;50.50;;;;;;5045670;28;20222;-85
2022/03/14 04:21:15;;;;;;;20.10;13.25;;;3.50;37.20;;;;;;5046832;28;20273;-84
2022/03/14 04:23:42;;;;;;;22.15;13.50;;;3.40;50.80;;;;;;5046154;28;20245;-84
2022/03/14 04:26:09;;;;;;;20.65;13.73;;;3.60;37.60;;;;;;5047047;28;20744;-85
2022/03/14 04:28:36;;;;;;;22.75;13.82;;;3.50;37.50;;;;;;5046053;28;20211;-84
2022/03/14 04:31:04;;;;;;;25.58;14.15;;;3.40;40.20;;;;;;5046202;28;20203;-84
2022/03/14 04:33:32;;;;;;;19.58;13.40;;;3.60;50.50;;;;;;5047096;28;20235;-85
2022/03/14 04:35:59;;;;;;;24.92;13.90;;;3.40;38.20;;;;;;5046599;28;20211;-85
2022/03/14 04:38:28;;;;;;;22.27;13.45;;;3.50;38.10;;;;;;5057935;28;20204;-83
2022/03/14 04:40:55;;;;;;;17.27;12.60;;;3.50;37.80;;;;;;5057858;28;20184;-83
2022/03/14 04:43:22;;;;;;;19.70;12.57;;;3.40;38.20;;;;;;5086152;22;20396;-84
2022/03/14 04:45:49;;;;;;;21.15;14.65;;;3.30;38.90;;;;;;5066459;28;20199;-84
2022/03/14 04:48:16;;;;;;;17.33;13.52;;;3.30;38.60;;;;;;5068031;28;20223;-84
2022/03/14 04:50:43;;;;;;;21.10;12.82;;;3.20;38.50;;;;;;5067313;28;20207;-84
2022/03/14 04:53:11;;;;;;;18.80;12.85;;;3.40;38.60;;;;;;5065333;28;20222;-85
2022/03/14 04:55:39;;;;;;;27.33;14.40;;;3.20;40.60;;;;;;5066251;28;20615;-84
2022/03/14 04:58:12;;;;;;;21.77;12.95;;;3.20;39.60;;;;;;5068588;28;20198;-84
2022/03/14 05:00:39;;;;;;;21.80;14.10;;;3.20;39.00;;;;;;5069390;28;20198;-82
2022/03/14 05:03:07;;;;;;;25.33;14.65;;;3.20;38.90;;;;;;5070847;28;20222;-84
2022/03/14 05:05:34;;;;;;;26.13;15.27;;;3.30;38.80;;;;;;5066358;28;20225;-85
2022/03/14 05:08:02;;;;;;;20.10;13.95;;;3.30;38.90;;;;;;5061570;28;20226;-84
2022/03/14 05:10:29;;;;;;;21.55;13.50;;;3.40;38.60;;;;;;5065220;28;20271;-84
2022/03/14 05:12:59;;;;;;;19.42;13.48;;;3.30;39.10;;;;;;5076558;28;20223;-84
2022/03/14 05:15:25;;;;;;;24.30;14.55;;;3.20;39.40;;;;;;5077971;28;20199;-84
2022/03/14 05:17:52;;;;;;;24.13;14.40;;;3.20;39.30;;;;;;5077263;28;20199;-84
2022/03/14 05:20:19;;;;;;;22.00;15.32;;;3.30;39.40;;;;;;5073843;28;20661;-84
2022/03/14 05:22:48;;;;;;;24.40;15.05;;;3.30;40.00;;;;;;5069004;28;20218;-84
2022/03/14 05:25:15;;;;;;;26.95;14.73;;;3.30;39.80;;;;;;5068647;28;20202;-84
2022/03/14 05:27:42;;;;;;;26.88;15.60;;;3.20;39.90;;;;;;5065894;28;20218;-84
2022/03/14 05:30:11;;;;;;;22.77;14.70;;;3.10;40.50;;;;;;5067065;28;20199;-85
2022/03/14 05:32:39;;;;;;;23.50;15.45;;;3.10;40.60;;;;;;5066078;28;20280;-84
2022/03/14 05:35:08;;;;;;;23.25;15.25;;;3.20;40.40;;;;;;5063671;28;20202;-84
2022/03/14 05:37:35;;;;;;;27.33;16.48;;;3.10;40.50;;;;;;5064400;28;20262;-84
2022/03/14 05:40:02;;;;;;;24.70;15.90;;;3.20;40.40;;;;;;5063936;28;20230;-84
2022/03/14 05:42:29;;;;;;;25.10;14.43;;;3.10;40.50;;;;;;5061845;28;20222;-84
2022/03/14 05:44:55;;;;;;;27.05;15.43;;;3.00;40.90;;;;;;5064119;28;20218;-84
2022/03/14 05:47:23;;;;;;;22.67;15.10;;;3.10;40.60;;;;;;5064593;28;20241;-85
2022/03/14 05:49:50;;;;;;;23.35;14.07;;;3.20;40.90;;;;;;5063647;28;20230;-85
2022/03/14 05:52:18;;;;;;;28.17;16.55;;;3.50;53.40;;;;;;5076853;28;20199;-84
2022/03/14 05:54:44;;;;;;;25.48;15.70;;;3.20;40.30;;;;;;5064178;28;20745;-84
2022/03/14 05:57:11;;;;;;;24.52;16.08;;;3.20;39.60;;;;;;5064719;28;20221;-85
2022/03/14 05:59:38;;;;;;;26.35;15.55;;;3.30;39.50;;;;;;5065775;28;20214;-84
2022/03/14 06:02:05;;;;;;;19.75;14.40;;;3.40;44.80;;;;;;5066556;28;20222;-83
2022/03/14 06:04:33;;;;;;;21.98;14.85;;;3.20;39.60;;;;;;5066885;28;20199;-85
2022/03/14 06:06:59;;;;;;;21.40;14.13;;;2.90;52.70;;;;;;5063739;28;20223;-85
2022/03/14 06:09:28;;;;;;;26.05;15.95;;;3.20;39.70;;;;;;5066436;28;20211;-85
2022/03/14 06:11:55;;;;;;;27.02;15.98;;;3.30;39.60;;;;;;5063968;28;20217;-86
2022/03/14 06:14:21;;;;;;;23.55;14.45;;;3.20;39.50;;;;;;5062859;28;20230;-86
2022/03/14 06:16:49;;;;;;;28.38;14.60;;;3.20;39.50;;;;;;5070664;28;20218;-84
2022/03/14 06:19:15;;;;;;;24.98;14.45;;;3.10;39.50;;;;;;5079466;28;20206;-85
2022/03/14 06:21:43;;;;;;;25.15;15.48;;;3.20;39.80;;;;;;5069638;28;20603;-86
2022/03/14 06:24:10;;;;;;;23.20;14.70;;;3.20;39.90;;;;;;5061858;28;20261;-86
2022/03/14 06:26:37;;;;;;;27.60;15.15;;;3.30;40.10;;;;;;5060644;28;20229;-86
2022/03/14 06:29:03;;;;;;;23.67;15.98;;;3.40;40.20;;;;;;5061471;28;20609;-86
2022/03/14 06:31:31;;;;;;;25.83;15.23;;;3.50;40.00;;;;;;5060177;28;20207;-86
2022/03/14 06:33:58;;;;;;;25.60;15.60;;;3.50;40.10;;;;;;5062683;28;20229;-86
2022/03/14 06:36:26;;;;;;;25.63;15.27;;;3.50;40.40;;;;;;5060425;28;20229;-86
2022/03/14 06:38:56;;;;;;;25.58;14.75;;;3.60;39.40;;;;;;5060829;28;20203;-86
2022/03/14 06:41:24;;;;;;;28.55;17.00;;;3.60;39.20;;;;;;5065448;28;20184;-86
2022/03/14 06:43:52;;;;;;;30.00;16.08;;;3.70;39.00;;;;;;5059793;28;20235;-86
2022/03/14 06:46:19;;;;;;;28.67;16.67;;;3.80;39.70;;;;;;5062106;28;20670;-86
2022/03/14 06:48:46;;;;;;;33.17;20.45;;;4.20;51.80;;;;;;5063259;28;20219;-86
2022/03/14 06:51:13;;;;;;;30.80;17.20;;;3.90;38.20;;;;;;5060675;28;20199;-86
2022/03/14 06:53:40;;;;;;;25.17;15.75;;;3.90;37.90;;;;;;5065073;28;20222;-86
2022/03/14 06:56:08;;;;;;;25.75;15.70;;;4.00;38.20;;;;;;5080104;28;20239;-85
2022/03/14 06:58:35;;;;;;;30.90;17.10;;;4.00;38.20;;;;;;5079933;28;20218;-85
2022/03/14 07:01:02;;;;;;;27.33;16.17;;;4.30;49.90;;;;;;5078327;28;20203;-86
2022/03/14 07:03:28;;;;;;;23.15;16.50;;;4.10;50.50;;;;;;5077771;28;20211;-86
2022/03/14 07:05:55;;;;;;;34.40;16.42;;;4.10;37.90;;;;;;5077418;28;20237;-86
2022/03/14 07:08:21;;;;;;;23.55;15.30;;;4.10;38.20;;;;;;5078198;28;20210;-86
2022/03/14 07:10:48;;;;;;;29.73;15.80;;;4.20;38.00;;;;;;5078448;28;20207;-85
2022/03/14 07:13:16;;;;;;;25.85;16.05;;;4.30;37.90;;;;;;5070256;28;20226;-86
2022/03/14 07:15:42;;;;;;;27.83;15.77;;;4.30;37.30;;;;;;5067517;28;20233;-86
2022/03/14 07:18:10;;;;;;;21.58;14.80;;;4.40;37.50;;;;;;5060715;28;20238;-86
2022/03/14 07:20:37;;;;;;;22.48;14.57;;;4.50;37.60;;;;;;5060411;28;20294;-86
2022/03/14 07:23:05;;;;;;;18.88;13.60;;;4.60;48.60;;;;;;5061378;28;20246;-86
2022/03/14 07:25:34;;;;;;;22.60;14.27;;;4.70;37.00;;;;;;5063708;28;20207;-86
2022/03/14 07:28:02;;;;;;;24.25;13.95;;;4.80;37.00;;;;;;5069438;28;20215;-85
2022/03/14 07:30:30;;;;;;;31.35;13.88;;;4.80;36.80;;;;;;5064331;28;20257;-86
2022/03/14 07:32:58;;;;;;;26.88;16.02;;;4.90;36.70;;;;;;5060665;28;20264;-86
2022/03/14 07:35:29;;;;;;;25.38;15.43;;;5.00;36.70;;;;;;5064271;28;20238;-86
2022/03/14 07:37:55;;;;;;;25.10;14.85;;;5.10;37.00;;;;;;5064456;28;20548;-86
2022/03/14 07:40:22;;;;;;;28.88;16.20;;;5.10;36.30;;;;;;5066221;28;20203;-86
2022/03/14 07:42:51;;;;;;;21.17;14.88;;;5.20;36.50;;;;;;5073909;28;20239;-85
2022/03/14 07:45:20;;;;;;;18.90;14.90;;;5.20;36.00;;;;;;5074198;28;20595;-86
2022/03/14 07:47:48;;;;;;;24.20;15.25;;;5.40;35.70;;;;;;5073452;28;20234;-85
2022/03/14 07:50:19;;;;;;;22.27;12.85;;;5.50;35.90;;;;;;5071968;28;20620;-86
2022/03/14 07:52:49;;;;;;;16.50;13.63;;;5.60;36.00;;;;;;5074030;28;20223;-86
2022/03/14 07:55:16;;;;;;;24.80;14.75;;;5.70;35.50;;;;;;5070999;28;20191;-86
2022/03/14 07:57:43;;;;;;;24.50;13.40;;;6.10;48.20;;;;;;5066906;28;20198;-86
2022/03/14 08:00:18;;;;;;;26.60;13.45;;;5.90;47.70;;;;;;5068673;28;20207;-86
2022/03/14 08:02:46;;;;;;;20.92;13.43;;;6.10;34.10;;;;;;5067812;28;20233;-87
2022/03/14 08:05:19;;;;;;;21.02;13.77;;;5.60;34.80;;;;;;5063826;28;20218;-86
2022/03/14 08:07:48;;;;;;;18.70;12.57;;;6.30;33.70;;;;;;5063926;28;20624;-87
2022/03/14 08:10:19;;;;;;;18.38;13.20;;;5.80;34.60;;;;;;5065045;28;20202;-88
2022/03/14 08:12:49;;;;;;;18.48;12.93;;;6.40;33.30;;;;;;5062697;28;20272;-86
2022/03/14 08:15:21;;;;;;;21.05;13.75;;;6.40;34.00;;;;;;5062766;28;20674;-86
2022/03/14 08:17:51;;;;;;;19.50;14.43;;;6.50;33.90;;;;;;5064964;28;20207;-86
2022/03/14 08:20:20;;;;;;;19.23;12.73;;;6.60;37.30;;;;;;5067250;28;20692;-87
2022/03/14 08:22:47;;;;;;;17.40;13.82;;;6.70;33.50;;;;;;5061489;28;20731;-87
2022/03/14 08:25:17;;;;;;;20.90;12.88;;;6.60;36.90;;;;;;5062873;28;20206;-88
2022/03/14 08:27:46;;;;;;;19.45;14.20;;;6.70;33.20;;;;;;5061919;28;20216;-87
2022/03/14 08:30:17;;;;;;;18.58;12.88;;;6.80;45.70;;;;;;5062945;28;20207;-88
2022/03/14 08:32:45;;;;;;;21.20;12.95;;;6.80;33.60;;;;;;5066062;28;20226;-86
2022/03/14 08:35:14;;;;;;;17.42;12.57;;;;;;;;;;5073953;28;20202;-85
2022/03/14 08:37:43;;;;;;;16.30;12.88;;;7.00;32.30;;;;;;5077790;28;20213;-86
2022/03/14 08:40:13;;;;;;;13.73;11.15;;;7.00;33.00;;;;;;5077951;28;20207;-86
2022/03/14 08:42:40;;;;;;;18.30;13.70;;;7.20;32.70;;;;;;5075951;28;20234;-86
2022/03/14 08:45:08;;;;;;;19.90;12.52;;;7.20;32.50;;;;;;5065153;28;20219;-86
2022/03/14 08:47:36;;;;;;;17.20;11.77;;;7.30;32.50;;;;;;5063432;28;20207;-86
2022/03/14 08:50:03;;;;;;;15.25;10.93;;;;;;;;;;5066586;28;20213;-87
2022/03/14 08:52:30;;;;;;;17.75;11.32;;;7.60;31.30;;;;;;5067839;28;20223;-86
2022/03/14 08:54:58;;;;;;;14.50;10.40;;;7.70;31.40;;;;;;5067846;28;20211;-86
2022/03/14 08:57:25;;;;;;;17.13;10.73;;;7.70;31.60;;;;;;5061425;28;20212;-86
2022/03/14 08:59:52;;;;;;;14.93;10.23;;;7.80;30.80;;;;;;5060474;28;20199;-86
2022/03/14 09:02:19;;;;;;;21.42;12.77;;;7.50;41.50;;;;;;5059558;28;20447;-87
2022/03/14 09:04:45;;;;;;;18.50;12.95;;;7.70;31.10;;;;;;5058690;28;20203;-86
2022/03/14 09:07:12;;;;;;;19.17;11.40;;;7.80;31.00;;;;;;5059961;28;20215;-86
2022/03/14 09:09:39;;;;;;;17.55;11.77;;;7.90;32.50;;;;;;5058128;28;20230;-86
2022/03/14 09:12:08;;;;;;;14.97;11.20;;;8.10;42.10;;;;;;5058997;28;20208;-86
2022/03/14 09:14:35;;;;;;;16.80;13.27;;;8.10;31.00;;;;;;5059568;28;20427;-86
2022/03/14 09:17:04;;;;;;;18.83;11.57;;;8.10;31.00;;;;;;5063185;28;20445;-86
2022/03/14 09:19:32;;;;;;;15.53;11.27;;;8.70;35.40;;;;;;5059963;28;20549;-87
2022/03/14 09:21:58;;;;;;;14.07;11.63;;;8.20;31.30;;;;;;5060742;28;20465;-87
2022/03/14 09:24:26;;;;;;;14.37;11.00;;;8.20;30.70;;;;;;5061325;28;20818;-87
2022/03/14 09:26:55;;;;;;;14.55;10.05;;;8.20;31.30;;;;;;5074043;28;20406;-85
2022/03/14 09:29:27;;;;;;;14.95;11.10;;;8.20;31.30;;;;;;5076922;28;20203;-86
2022/03/14 09:31:55;;;;;;;15.20;11.33;;;8.30;31.50;;;;;;5077315;28;20208;-86
2022/03/14 09:34:22;;;;;;;14.63;10.77;;;8.30;31.10;;;;;;5063709;28;20554;-86
2022/03/14 09:36:49;;;;;;;14.47;11.33;;;8.40;31.40;;;;;;5061754;28;20481;-87
2022/03/14 09:39:16;;;;;;;16.63;11.63;;;8.50;31.70;;;;;;5068590;28;20448;-86
2022/03/14 09:41:45;;;;;;;13.73;10.20;;;8.60;31.10;;;;;;5072396;28;20443;-86
2022/03/14 09:44:15;;;;;;;18.13;12.07;;;8.70;31.70;;;;;;5064731;28;20510;-87
2022/03/14 09:46:46;;;;;;;23.90;11.13;;;8.70;30.90;;;;;;5063442;28;20507;-86
2022/03/14 09:49:15;;;;;;;20.90;11.57;;;8.70;30.70;;;;;;5072611;28;20449;-87
2022/03/14 09:51:43;;;;;;;17.73;11.53;;;8.80;31.40;;;;;;5062092;28;20425;-86
2022/03/14 09:54:10;;;;;;;15.53;10.50;;;8.80;31.00;;;;;;5063815;28;20443;-86
2022/03/14 09:56:41;;;;;;;15.00;11.40;;;8.90;30.50;;;;;;5064969;28;20418;-87
2022/03/14 09:59:10;;;;;;;17.20;9.97;;;9.00;31.40;;;;;;5071020;28;20406;-85
2022/03/14 10:01:37;;;;;;;17.70;12.47;;;9.10;29.90;;;;;;5070612;28;20426;-86
2022/03/14 10:04:06;;;;;;;11.20;10.00;;;9.20;30.00;;;;;;5070137;28;20443;-86
2022/03/14 10:06:32;;;;;;;16.13;11.10;;;9.30;31.70;;;;;;5072813;28;20417;-85
2022/03/14 10:08:59;;;;;;;16.73;12.00;;;9.40;30.50;;;;;;5073806;28;20490;-86
2022/03/14 10:11:26;;;;;;;13.70;10.93;;;9.50;30.40;;;;;;5073309;28;20445;-85
2022/03/14 10:13:53;;;;;;;13.23;11.67;;;9.60;29.70;;;;;;5074493;28;20474;-86
2022/03/14 10:16:20;;;;;;;14.80;11.57;;;9.60;29.00;;;;;;5067229;28;20459;-86
2022/03/14 10:18:55;;;;;;;14.37;10.60;;;9.80;30.40;;;;;;5068865;28;20875;-86
2022/03/14 10:21:35;;;;;;;14.77;12.40;;;9.70;29.60;;;;;;5075118;28;20504;-86
2022/03/14 10:24:04;;;;;;;19.43;10.70;;;9.80;28.90;;;;;;5069410;28;20479;-86
2022/03/14 10:26:32;;;;;;;18.50;12.60;;;;;;;;;;5069593;28;20453;-86
2022/03/14 10:29:00;;;;;;;13.80;11.30;;;9.90;29.20;;;;;;5065820;28;20485;-85
2022/03/14 10:31:34;;;;;;;13.73;9.80;;;10.00;28.10;;;;;;5072571;28;20446;-86
2022/03/14 10:34:04;;;;;;;14.17;11.57;;;10.00;36.70;;;;;;5064552;28;20442;-87
2022/03/14 10:36:45;;;;;;;16.10;12.20;;;10.00;28.30;;;;;;5064144;28;20462;-86
2022/03/14 10:39:13;;;;;;;14.10;11.07;;;10.10;28.30;;;;;;5063543;28;20409;-86
2022/03/14 10:41:40;;;;;;;12.43;11.17;;;10.20;28.10;;;;;;5062713;28;20425;-86
2022/03/14 10:44:08;;;;;;;15.87;11.23;;;10.50;37.90;;;;;;5080214;22;20529;-83
2022/03/14 10:46:38;;;;;;;13.97;11.97;;;10.30;28.00;;;;;;5043362;28;20945;-84
2022/03/14 10:49:09;;;;;;;16.03;11.70;;;10.40;28.40;;;;;;5043316;28;20448;-84
2022/03/14 10:51:53;;;;;;;17.40;12.13;;;10.50;28.30;;;;;;5047420;28;20453;-84
2022/03/14 10:54:20;;;;;;;16.03;11.37;;;10.50;28.30;;;;;;5050361;28;20565;-84
2022/03/14 10:57:01;;;;;;;23.73;13.90;;;10.60;29.00;;;;;;5045425;28;20417;-85
2022/03/14 10:59:33;;;;;;;13.37;10.27;;;10.70;28.40;;;;;;5045074;28;20435;-85
2022/03/14 11:02:00;;;;;;;16.90;10.20;;;10.80;28.50;;;;;;5044879;28;20405;-85
2022/03/14 11:04:27;;;;;;;14.97;10.63;;;10.90;28.80;;;;;;5047557;28;20445;-85
2022/03/14 11:07:00;;;;;;;16.23;10.33;;;11.00;28.50;;;;;;5051033;28;20872;-84
2022/03/14 11:09:44;;;;;;;14.37;11.77;;;11.00;30.40;;;;;;5053313;28;20577;-84
2022/03/14 11:12:12;;;;;;;13.90;10.40;;;11.10;31.90;;;;;;5055963;28;20390;-84
2022/03/14 11:14:40;;;;;;;12.43;11.13;;;11.10;28.20;;;;;;5057031;28;20474;-84
2022/03/14 11:17:15;;;;;;;12.40;11.03;;;11.10;38.40;;;;;;5056701;28;20418;-84
2022/03/14 11:19:42;;;;;;;14.60;10.47;;;11.10;28.50;;;;;;5053317;28;20455;-85
2022/03/14 11:22:12;;;;;;;15.30;11.23;;;11.50;37.90;;;;;;5047038;28;20432;-85
2022/03/14 11:24:44;;;;;;;12.63;11.47;;;11.30;28.50;;;;;;5048235;28;20493;-84
2022/03/14 11:27:17;;;;;;;13.90;10.57;;;11.40;28.20;;;;;;5045525;28;20452;-85
2022/03/14 11:29:46;;;;;;;13.20;11.27;;;11.50;35.30;;;;;;5045299;28;20448;-86
2022/03/14 11:32:14;;;;;;;12.50;10.57;;;11.60;29.00;;;;;;5049823;28;20458;-83
2022/03/14 11:34:41;;;;;;;12.80;10.60;;;11.70;27.70;;;;;;5044671;28;20489;-84
2022/03/14 11:37:10;;;;;;;11.30;10.10;;;11.70;27.50;;;;;;5041410;28;20438;-83
2022/03/14 11:39:37;;;;;;;11.10;10.00;;;;;;;;;;5042726;28;20948;-85
2022/03/14 11:42:05;;;;;;;10.80;9.70;;;11.70;28.70;;;;;;5048642;28;20504;-85
2022/03/14 11:44:32;;;;;;;12.27;10.63;;;11.60;27.70;;;;;;5055370;28;20433;-84
2022/03/14 11:46:59;;;;;;;13.63;12.23;;;12.10;37.30;;;;;;5055688;28;20443;-84
2022/03/14 11:49:28;;;;;;;13.30;9.73;;;11.90;28.00;;;;;;5055667;28;20494;-84
2022/03/14 11:52:08;;;;;;;11.90;10.10;;;12.80;46.60;;;;;;5050679;28;20451;-85
2022/03/14 11:54:41;;;;;;;13.40;10.80;;;12.60;33.00;;;;;;5048369;28;20466;-84
2022/03/14 11:57:08;;;;;;;12.97;10.50;;;12.80;26.70;;;;;;5052462;28;20406;-84
2022/03/14 11:59:36;;;;;;;13.93;10.43;;;12.80;26.70;;;;;;5053934;28;20413;-85
2022/03/14 12:02:05;;;;;;;14.10;11.47;;;13.00;27.90;;;;;;5047392;28;20446;-84
2022/03/14 12:04:34;;;;;;;11.70;10.60;;;13.10;26.90;;;;;;5051177;28;20428;-84
2022/03/14 12:07:17;;;;;;;12.40;10.30;;;13.10;27.50;;;;;;5055665;28;20410;-84
2022/03/14 12:09:51;;;;;;;13.57;10.60;;;13.00;28.70;;;;;;5044669;28;20446;-84
2022/03/14 12:12:34;;;;;;;13.17;11.73;;;12.70;26.80;;;;;;5044386;28;20447;-84
2022/03/14 12:15:01;;;;;;;14.10;12.43;;;12.70;27.80;;;;;;5044208;28;20447;-84
2022/03/14 12:17:31;;;;;;;15.37;10.60;;;12.80;27.80;;;;;;5047567;28;20714;-84
2022/03/14 12:20:00;;;;;;;12.83;10.77;;;12.80;27.70;;;;;;5048834;28;20414;-84
2022/03/14 12:22:40;;;;;;;12.73;10.57;;;12.90;30.40;;;;;;5049648;28;20438;-85
2022/03/14 12:25:10;;;;;;;12.23;10.93;;;12.90;27.50;;;;;;5051546;28;20454;-85
2022/03/14 12:27:38;;;;;;;11.20;10.10;;;12.70;27.00;;;;;;5049618;28;20458;-84
2022/03/14 12:30:07;;;;;;;14.70;11.20;;;12.80;28.10;;;;;;5052252;28;20468;-85
2022/03/14 12:32:36;;;;;;;12.40;10.90;;;12.80;28.20;;;;;;5053112;28;20409;-84
2022/03/14 12:35:12;;;;;;;15.17;11.80;;;12.80;28.70;;;;;;5057979;28;20436;-82
2022/03/14 12:37:44;;;;;;;14.40;11.00;;;13.00;33.20;;;;;;5057397;28;20427;-83
2022/03/14 12:40:41;;;;;;;12.00;10.13;;;13.00;28.70;;;;;;5054200;28;20451;-85